sensor_id;sensor_type;location;lat;lon;timestamp;P1;durP1;ratioP1;P2;durP2;ratioP2
28828;SDS011;15966;51.540;11.870;2024-01-15T00:00:45;21.40;;;13.95;;
28828;SDS011;15966;51.540;11.870;2024-01-15T00:03:11;22.23;;;14.65;;
28828;SDS011;15966;51.540;11.870;2024-01-15T00:05:37;22.02;;;15.05;;
28828;SDS011;15966;51.540;11.870;2024-01-15T00:08:03;21.27;;;16.83;;
28828;SDS011;15966;51.540;11.870;2024-01-15T00:10:29;21.10;;;16.17;;
28828;SDS011;15966;51.540;11.870;2024-01-15T00:12:55;22.98;;;17.52;;
28828;SDS011;15966;51.540;11.870;2024-01-15T00:15:21;22.67;;;17.88;;
28828;SDS011;15966;51.540;11.870;2024-01-15T00:17:47;21.77;;;16.00;;
28828;SDS011;15966;51.540;11.870;2024-01-15T00:20:13;24.13;;;16.02;;
28828;SDS011;15966;51.540;11.870;2024-01-15T00:22:40;24.67;;;18.00;;
28828;SDS011;15966;51.540;11.870;2024-01-15T00:25:06;23.33;;;16.73;;
28828;SDS011;15966;51.540;11.870;2024-01-15T00:27:32;24.85;;;18.63;;
28828;SDS011;15966;51.540;11.870;2024-01-15T00:29:58;27.00;;;15.75;;
28828;SDS011;15966;51.540;11.870;2024-01-15T00:32:24;22.52;;;15.27;;
28828;SDS011;15966;51.540;11.870;2024-01-15T00:34:50;24.83;;;16.67;;
28828;SDS011;15966;51.540;11.870;2024-01-15T00:37:16;25.27;;;17.38;;
28828;SDS011;15966;51.540;11.870;2024-01-15T00:39:42;23.90;;;17.23;;
28828;SDS011;15966;51.540;11.870;2024-01-15T00:42:08;29.95;;;18.10;;
28828;SDS011;15966;51.540;11.870;2024-01-15T00:44:34;20.85;;;14.85;;
28828;SDS011;15966;51.540;11.870;2024-01-15T00:47:00;22.48;;;16.38;;
28828;SDS011;15966;51.540;11.870;2024-01-15T00:49:27;26.42;;;17.45;;
28828;SDS011;15966;51.540;11.870;2024-01-15T00:51:53;22.85;;;16.48;;
28828;SDS011;15966;51.540;11.870;2024-01-15T00:54:19;22.77;;;17.13;;
28828;SDS011;15966;51.540;11.870;2024-01-15T00:56:45;23.83;;;17.58;;
28828;SDS011;15966;51.540;11.870;2024-01-15T00:59:11;28.55;;;17.95;;
28828;SDS011;15966;51.540;11.870;2024-01-15T01:01:40;28.02;;;17.17;;
28828;SDS011;15966;51.540;11.870;2024-01-15T01:04:08;25.88;;;18.95;;
28828;SDS011;15966;51.540;11.870;2024-01-15T01:06:34;26.98;;;17.88;;
28828;SDS011;15966;51.540;11.870;2024-01-15T01:09:00;27.27;;;17.70;;
28828;SDS011;15966;51.540;11.870;2024-01-15T01:11:26;27.70;;;19.42;;
28828;SDS011;15966;51.540;11.870;2024-01-15T01:13:52;29.30;;;18.75;;
28828;SDS011;15966;51.540;11.870;2024-01-15T01:16:18;27.55;;;18.38;;
28828;SDS011;15966;51.540;11.870;2024-01-15T01:18:44;24.92;;;17.95;;
28828;SDS011;15966;51.540;11.870;2024-01-15T01:21:10;28.77;;;20.25;;
28828;SDS011;15966;51.540;11.870;2024-01-15T01:23:37;25.90;;;19.17;;
28828;SDS011;15966;51.540;11.870;2024-01-15T01:26:03;32.17;;;19.85;;
28828;SDS011;15966;51.540;11.870;2024-01-15T01:28:29;28.33;;;19.20;;
28828;SDS011;15966;51.540;11.870;2024-01-15T01:30:55;30.20;;;19.02;;
28828;SDS011;15966;51.540;11.870;2024-01-15T01:33:21;33.47;;;22.67;;
28828;SDS011;15966;51.540;11.870;2024-01-15T01:35:47;26.35;;;18.70;;
28828;SDS011;15966;51.540;11.870;2024-01-15T01:38:13;28.10;;;19.40;;
28828;SDS011;15966;51.540;11.870;2024-01-15T01:40:39;27.73;;;20.45;;
28828;SDS011;15966;51.540;11.870;2024-01-15T01:43:05;30.30;;;20.13;;
28828;SDS011;15966;51.540;11.870;2024-01-15T01:45:31;27.33;;;19.60;;
28828;SDS011;15966;51.540;11.870;2024-01-15T01:47:57;28.77;;;18.77;;
28828;SDS011;15966;51.540;11.870;2024-01-15T01:50:24;31.42;;;20.13;;
28828;SDS011;15966;51.540;11.870;2024-01-15T01:52:50;25.08;;;16.42;;
28828;SDS011;15966;51.540;11.870;2024-01-15T01:55:16;25.45;;;17.77;;
28828;SDS011;15966;51.540;11.870;2024-01-15T01:57:43;29.77;;;18.90;;
28828;SDS011;15966;51.540;11.870;2024-01-15T02:00:09;30.65;;;19.70;;
28828;SDS011;15966;51.540;11.870;2024-01-15T02:02:36;27.80;;;19.60;;
28828;SDS011;15966;51.540;11.870;2024-01-15T02:05:03;33.42;;;19.83;;
28828;SDS011;15966;51.540;11.870;2024-01-15T02:07:30;32.85;;;21.30;;
28828;SDS011;15966;51.540;11.870;2024-01-15T02:09:56;32.72;;;19.55;;
28828;SDS011;15966;51.540;11.870;2024-01-15T02:12:22;30.63;;;20.63;;
28828;SDS011;15966;51.540;11.870;2024-01-15T02:14:49;26.30;;;19.77;;
28828;SDS011;15966;51.540;11.870;2024-01-15T02:17:15;29.23;;;19.17;;
28828;SDS011;15966;51.540;11.870;2024-01-15T02:19:41;39.35;;;20.98;;
28828;SDS011;15966;51.540;11.870;2024-01-15T02:22:07;30.52;;;20.05;;
28828;SDS011;15966;51.540;11.870;2024-01-15T02:24:33;28.27;;;18.48;;
28828;SDS011;15966;51.540;11.870;2024-01-15T02:26:59;29.13;;;20.38;;
28828;SDS011;15966;51.540;11.870;2024-01-15T02:29:25;33.17;;;19.35;;
28828;SDS011;15966;51.540;11.870;2024-01-15T02:31:51;30.35;;;21.25;;
28828;SDS011;15966;51.540;11.870;2024-01-15T02:34:17;31.27;;;19.10;;
28828;SDS011;15966;51.540;11.870;2024-01-15T02:36:43;25.27;;;18.10;;
28828;SDS011;15966;51.540;11.870;2024-01-15T02:39:09;26.02;;;18.00;;
28828;SDS011;15966;51.540;11.870;2024-01-15T02:41:36;25.73;;;18.20;;
28828;SDS011;15966;51.540;11.870;2024-01-15T02:44:02;26.30;;;17.35;;
28828;SDS011;15966;51.540;11.870;2024-01-15T02:46:28;24.83;;;16.92;;
28828;SDS011;15966;51.540;11.870;2024-01-15T02:48:54;26.40;;;17.67;;
28828;SDS011;15966;51.540;11.870;2024-01-15T02:51:20;24.92;;;15.88;;
28828;SDS011;15966;51.540;11.870;2024-01-15T02:53:46;24.27;;;15.05;;
28828;SDS011;15966;51.540;11.870;2024-01-15T02:56:13;25.73;;;17.25;;
28828;SDS011;15966;51.540;11.870;2024-01-15T02:58:39;28.23;;;17.15;;
28828;SDS011;15966;51.540;11.870;2024-01-15T03:01:05;28.80;;;17.30;;
28828;SDS011;15966;51.540;11.870;2024-01-15T03:03:31;22.52;;;14.77;;
28828;SDS011;15966;51.540;11.870;2024-01-15T03:05:58;20.35;;;14.35;;
28828;SDS011;15966;51.540;11.870;2024-01-15T03:08:24;20.63;;;14.05;;
28828;SDS011;15966;51.540;11.870;2024-01-15T03:10:50;21.73;;;14.23;;
28828;SDS011;15966;51.540;11.870;2024-01-15T03:13:16;20.13;;;14.00;;
28828;SDS011;15966;51.540;11.870;2024-01-15T03:15:44;25.10;;;14.23;;
28828;SDS011;15966;51.540;11.870;2024-01-15T03:18:10;20.95;;;15.63;;
28828;SDS011;15966;51.540;11.870;2024-01-15T03:20:36;19.83;;;13.65;;
28828;SDS011;15966;51.540;11.870;2024-01-15T03:23:02;23.30;;;15.45;;
28828;SDS011;15966;51.540;11.870;2024-01-15T03:25:28;25.20;;;17.63;;
28828;SDS011;15966;51.540;11.870;2024-01-15T03:27:54;23.15;;;17.13;;
28828;SDS011;15966;51.540;11.870;2024-01-15T03:30:20;27.35;;;17.20;;
28828;SDS011;15966;51.540;11.870;2024-01-15T03:32:46;24.27;;;16.83;;
28828;SDS011;15966;51.540;11.870;2024-01-15T03:35:14;23.40;;;16.65;;
28828;SDS011;15966;51.540;11.870;2024-01-15T03:37:41;20.65;;;14.07;;
28828;SDS011;15966;51.540;11.870;2024-01-15T03:40:07;24.00;;;16.17;;
28828;SDS011;15966;51.540;11.870;2024-01-15T03:42:34;27.20;;;17.13;;
28828;SDS011;15966;51.540;11.870;2024-01-15T03:45:00;24.75;;;16.23;;
28828;SDS011;15966;51.540;11.870;2024-01-15T03:47:26;24.55;;;15.85;;
28828;SDS011;15966;51.540;11.870;2024-01-15T03:49:52;21.42;;;16.80;;
28828;SDS011;15966;51.540;11.870;2024-01-15T03:52:18;25.35;;;17.02;;
28828;SDS011;15966;51.540;11.870;2024-01-15T03:54:44;24.50;;;14.80;;
28828;SDS011;15966;51.540;11.870;2024-01-15T03:57:10;22.35;;;15.55;;
28828;SDS011;15966;51.540;11.870;2024-01-15T03:59:36;22.77;;;15.35;;
28828;SDS011;15966;51.540;11.870;2024-01-15T04:02:02;28.67;;;16.73;;
28828;SDS011;15966;51.540;11.870;2024-01-15T04:04:29;26.15;;;15.23;;
28828;SDS011;15966;51.540;11.870;2024-01-15T04:06:55;20.77;;;15.02;;
28828;SDS011;15966;51.540;11.870;2024-01-15T04:09:21;23.42;;;14.13;;
28828;SDS011;15966;51.540;11.870;2024-01-15T04:11:47;28.40;;;16.67;;
28828;SDS011;15966;51.540;11.870;2024-01-15T04:14:13;22.10;;;14.38;;
28828;SDS011;15966;51.540;11.870;2024-01-15T04:16:39;19.45;;;13.98;;
28828;SDS011;15966;51.540;11.870;2024-01-15T04:19:06;22.15;;;13.20;;
28828;SDS011;15966;51.540;11.870;2024-01-15T04:21:32;19.58;;;13.02;;
28828;SDS011;15966;51.540;11.870;2024-01-15T04:23:58;18.98;;;13.68;;
28828;SDS011;15966;51.540;11.870;2024-01-15T04:26:24;19.35;;;12.88;;
28828;SDS011;15966;51.540;11.870;2024-01-15T04:28:50;16.40;;;12.18;;
28828;SDS011;15966;51.540;11.870;2024-01-15T04:31:23;21.00;;;12.05;;
28828;SDS011;15966;51.540;11.870;2024-01-15T04:33:50;20.95;;;12.82;;
28828;SDS011;15966;51.540;11.870;2024-01-15T04:36:16;16.17;;;11.43;;
28828;SDS011;15966;51.540;11.870;2024-01-15T04:38:42;16.05;;;9.85;;
28828;SDS011;15966;51.540;11.870;2024-01-15T04:41:12;14.65;;;9.40;;
28828;SDS011;15966;51.540;11.870;2024-01-15T04:43:38;19.90;;;11.18;;
28828;SDS011;15966;51.540;11.870;2024-01-15T04:46:07;18.23;;;11.30;;
28828;SDS011;15966;51.540;11.870;2024-01-15T04:48:34;17.35;;;12.38;;
28828;SDS011;15966;51.540;11.870;2024-01-15T04:51:00;16.02;;;12.73;;
28828;SDS011;15966;51.540;11.870;2024-01-15T04:53:28;17.75;;;10.10;;
28828;SDS011;15966;51.540;11.870;2024-01-15T04:55:54;18.52;;;13.05;;
28828;SDS011;15966;51.540;11.870;2024-01-15T04:58:20;16.17;;;10.43;;
28828;SDS011;15966;51.540;11.870;2024-01-15T05:00:49;15.82;;;11.18;;
28828;SDS011;15966;51.540;11.870;2024-01-15T05:03:16;21.55;;;11.80;;
28828;SDS011;15966;51.540;11.870;2024-01-15T05:05:42;12.90;;;10.38;;
28828;SDS011;15966;51.540;11.870;2024-01-15T05:08:08;14.85;;;8.20;;
28828;SDS011;15966;51.540;11.870;2024-01-15T05:10:34;11.25;;;8.32;;
28828;SDS011;15966;51.540;11.870;2024-01-15T05:13:00;10.75;;;8.88;;
28828;SDS011;15966;51.540;11.870;2024-01-15T05:15:26;12.20;;;8.70;;
28828;SDS011;15966;51.540;11.870;2024-01-15T05:17:52;11.88;;;9.20;;
28828;SDS011;15966;51.540;11.870;2024-01-15T05:20:19;17.13;;;10.45;;
28828;SDS011;15966;51.540;11.870;2024-01-15T05:22:45;14.27;;;10.27;;
28828;SDS011;15966;51.540;11.870;2024-01-15T05:25:11;17.90;;;10.25;;
28828;SDS011;15966;51.540;11.870;2024-01-15T05:27:37;15.57;;;10.65;;
28828;SDS011;15966;51.540;11.870;2024-01-15T05:30:03;12.00;;;9.40;;
28828;SDS011;15966;51.540;11.870;2024-01-15T05:32:29;10.60;;;8.07;;
28828;SDS011;15966;51.540;11.870;2024-01-15T05:34:55;17.50;;;10.57;;
28828;SDS011;15966;51.540;11.870;2024-01-15T05:37:21;18.02;;;8.98;;
28828;SDS011;15966;51.540;11.870;2024-01-15T05:39:47;14.48;;;8.45;;
28828;SDS011;15966;51.540;11.870;2024-01-15T05:42:14;12.43;;;8.00;;
28828;SDS011;15966;51.540;11.870;2024-01-15T05:44:40;12.77;;;7.22;;
28828;SDS011;15966;51.540;11.870;2024-01-15T05:47:06;14.38;;;8.93;;
28828;SDS011;15966;51.540;11.870;2024-01-15T05:49:32;13.95;;;8.40;;
28828;SDS011;15966;51.540;11.870;2024-01-15T05:51:58;11.65;;;8.63;;
28828;SDS011;15966;51.540;11.870;2024-01-15T05:54:24;15.32;;;9.48;;
28828;SDS011;15966;51.540;11.870;2024-01-15T05:56:50;12.27;;;8.32;;
28828;SDS011;15966;51.540;11.870;2024-01-15T05:59:17;13.70;;;8.50;;
28828;SDS011;15966;51.540;11.870;2024-01-15T06:01:43;12.05;;;9.00;;
28828;SDS011;15966;51.540;11.870;2024-01-15T06:04:09;12.52;;;8.18;;
28828;SDS011;15966;51.540;11.870;2024-01-15T06:06:35;11.10;;;8.05;;
28828;SDS011;15966;51.540;11.870;2024-01-15T06:09:01;14.68;;;8.38;;
28828;SDS011;15966;51.540;11.870;2024-01-15T06:11:32;17.95;;;10.20;;
28828;SDS011;15966;51.540;11.870;2024-01-15T06:13:58;15.93;;;9.80;;
28828;SDS011;15966;51.540;11.870;2024-01-15T06:16:27;14.68;;;9.50;;
28828;SDS011;15966;51.540;11.870;2024-01-15T06:18:54;14.85;;;8.27;;
28828;SDS011;15966;51.540;11.870;2024-01-15T06:21:20;16.90;;;10.23;;
28828;SDS011;15966;51.540;11.870;2024-01-15T06:23:46;14.80;;;8.88;;
28828;SDS011;15966;51.540;11.870;2024-01-15T06:26:12;13.38;;;9.52;;
28828;SDS011;15966;51.540;11.870;2024-01-15T06:28:38;15.25;;;9.68;;
28828;SDS011;15966;51.540;11.870;2024-01-15T06:31:05;13.10;;;8.60;;
28828;SDS011;15966;51.540;11.870;2024-01-15T06:33:32;14.93;;;9.18;;
28828;SDS011;15966;51.540;11.870;2024-01-15T06:35:58;14.32;;;8.57;;
28828;SDS011;15966;51.540;11.870;2024-01-15T06:38:24;12.07;;;8.88;;
28828;SDS011;15966;51.540;11.870;2024-01-15T06:40:50;12.93;;;8.90;;
28828;SDS011;15966;51.540;11.870;2024-01-15T06:43:17;13.45;;;9.02;;
28828;SDS011;15966;51.540;11.870;2024-01-15T06:45:43;20.17;;;10.35;;
28828;SDS011;15966;51.540;11.870;2024-01-15T06:48:09;12.75;;;9.23;;
28828;SDS011;15966;51.540;11.870;2024-01-15T06:50:39;13.73;;;10.40;;
28828;SDS011;15966;51.540;11.870;2024-01-15T06:53:05;12.55;;;9.10;;
28828;SDS011;15966;51.540;11.870;2024-01-15T06:55:31;12.77;;;8.85;;
28828;SDS011;15966;51.540;11.870;2024-01-15T06:57:57;17.20;;;11.13;;
28828;SDS011;15966;51.540;11.870;2024-01-15T07:00:23;13.57;;;10.07;;
28828;SDS011;15966;51.540;11.870;2024-01-15T07:02:49;11.52;;;8.43;;
28828;SDS011;15966;51.540;11.870;2024-01-15T07:05:16;13.82;;;9.73;;
28828;SDS011;15966;51.540;11.870;2024-01-15T07:07:42;11.75;;;8.85;;
28828;SDS011;15966;51.540;11.870;2024-01-15T07:10:09;13.60;;;9.73;;
28828;SDS011;15966;51.540;11.870;2024-01-15T07:12:35;14.20;;;7.93;;
28828;SDS011;15966;51.540;11.870;2024-01-15T07:15:01;11.68;;;8.55;;
28828;SDS011;15966;51.540;11.870;2024-01-15T07:17:29;14.95;;;9.25;;
28828;SDS011;15966;51.540;11.870;2024-01-15T07:19:56;15.18;;;8.90;;
28828;SDS011;15966;51.540;11.870;2024-01-15T07:22:22;13.43;;;9.07;;
28828;SDS011;15966;51.540;11.870;2024-01-15T07:24:48;14.80;;;8.55;;
28828;SDS011;15966;51.540;11.870;2024-01-15T07:27:14;11.98;;;8.07;;
28828;SDS011;15966;51.540;11.870;2024-01-15T07:29:40;11.65;;;9.13;;
28828;SDS011;15966;51.540;11.870;2024-01-15T07:32:07;14.07;;;8.57;;
28828;SDS011;15966;51.540;11.870;2024-01-15T07:34:33;15.63;;;8.90;;
28828;SDS011;15966;51.540;11.870;2024-01-15T07:36:59;12.95;;;8.77;;
28828;SDS011;15966;51.540;11.870;2024-01-15T07:39:26;13.30;;;9.38;;
28828;SDS011;15966;51.540;11.870;2024-01-15T07:41:53;11.82;;;10.05;;
28828;SDS011;15966;51.540;11.870;2024-01-15T07:44:19;14.27;;;9.23;;
28828;SDS011;15966;51.540;11.870;2024-01-15T07:46:46;12.65;;;8.27;;
28828;SDS011;15966;51.540;11.870;2024-01-15T07:49:12;13.52;;;8.90;;
28828;SDS011;15966;51.540;11.870;2024-01-15T07:51:39;13.27;;;8.18;;
28828;SDS011;15966;51.540;11.870;2024-01-15T07:54:05;14.18;;;9.23;;
28828;SDS011;15966;51.540;11.870;2024-01-15T07:56:32;15.43;;;9.05;;
28828;SDS011;15966;51.540;11.870;2024-01-15T07:58:58;17.45;;;9.10;;
28828;SDS011;15966;51.540;11.870;2024-01-15T08:01:24;11.80;;;8.55;;
28828;SDS011;15966;51.540;11.870;2024-01-15T08:03:50;10.05;;;7.47;;
28828;SDS011;15966;51.540;11.870;2024-01-15T08:06:17;15.97;;;8.00;;
28828;SDS011;15966;51.540;11.870;2024-01-15T08:08:44;10.95;;;9.05;;
28828;SDS011;15966;51.540;11.870;2024-01-15T08:11:10;11.05;;;8.90;;
28828;SDS011;15966;51.540;11.870;2024-01-15T08:13:36;15.20;;;7.90;;
28828;SDS011;15966;51.540;11.870;2024-01-15T08:16:02;15.80;;;8.90;;
28828;SDS011;15966;51.540;11.870;2024-01-15T08:18:28;13.75;;;9.65;;
28828;SDS011;15966;51.540;11.870;2024-01-15T08:20:54;13.38;;;9.15;;
28828;SDS011;15966;51.540;11.870;2024-01-15T08:23:20;11.45;;;9.63;;
28828;SDS011;15966;51.540;11.870;2024-01-15T08:25:47;20.23;;;9.48;;
28828;SDS011;15966;51.540;11.870;2024-01-15T08:28:13;13.98;;;8.90;;
28828;SDS011;15966;51.540;11.870;2024-01-15T08:30:39;13.13;;;8.98;;
28828;SDS011;15966;51.540;11.870;2024-01-15T08:33:05;19.50;;;9.15;;
28828;SDS011;15966;51.540;11.870;2024-01-15T08:35:31;20.42;;;10.18;;
28828;SDS011;15966;51.540;11.870;2024-01-15T08:37:57;14.55;;;8.93;;
28828;SDS011;15966;51.540;11.870;2024-01-15T08:40:23;10.52;;;8.35;;
28828;SDS011;15966;51.540;11.870;2024-01-15T08:42:49;12.13;;;9.63;;
28828;SDS011;15966;51.540;11.870;2024-01-15T08:45:15;16.95;;;9.00;;
28828;SDS011;15966;51.540;11.870;2024-01-15T08:47:41;14.80;;;7.95;;
28828;SDS011;15966;51.540;11.870;2024-01-15T08:50:07;14.65;;;9.18;;
28828;SDS011;15966;51.540;11.870;2024-01-15T08:52:35;15.30;;;10.93;;
28828;SDS011;15966;51.540;11.870;2024-01-15T08:55:02;10.55;;;7.72;;
28828;SDS011;15966;51.540;11.870;2024-01-15T08:57:29;16.13;;;8.97;;
28828;SDS011;15966;51.540;11.870;2024-01-15T08:59:55;15.30;;;10.07;;
28828;SDS011;15966;51.540;11.870;2024-01-15T09:02:21;15.40;;;8.68;;
28828;SDS011;15966;51.540;11.870;2024-01-15T09:04:47;19.83;;;9.57;;
28828;SDS011;15966;51.540;11.870;2024-01-15T09:07:14;9.02;;;7.45;;
28828;SDS011;15966;51.540;11.870;2024-01-15T09:09:40;13.18;;;8.63;;
28828;SDS011;15966;51.540;11.870;2024-01-15T09:12:07;8.55;;;6.63;;
28828;SDS011;15966;51.540;11.870;2024-01-15T09:14:33;14.38;;;8.10;;
28828;SDS011;15966;51.540;11.870;2024-01-15T09:17:00;13.47;;;8.03;;
28828;SDS011;15966;51.540;11.870;2024-01-15T09:19:26;11.30;;;8.57;;
28828;SDS011;15966;51.540;11.870;2024-01-15T09:21:52;13.73;;;7.75;;
28828;SDS011;15966;51.540;11.870;2024-01-15T09:24:18;11.90;;;7.95;;
28828;SDS011;15966;51.540;11.870;2024-01-15T09:26:45;10.68;;;7.22;;
28828;SDS011;15966;51.540;11.870;2024-01-15T09:29:11;12.13;;;7.93;;
28828;SDS011;15966;51.540;11.870;2024-01-15T09:31:38;13.60;;;8.15;;
28828;SDS011;15966;51.540;11.870;2024-01-15T09:34:04;8.77;;;7.85;;
28828;SDS011;15966;51.540;11.870;2024-01-15T09:36:31;11.55;;;7.32;;
28828;SDS011;15966;51.540;11.870;2024-01-15T09:38:57;13.15;;;7.38;;
28828;SDS011;15966;51.540;11.870;2024-01-15T09:41:23;8.63;;;7.32;;
28828;SDS011;15966;51.540;11.870;2024-01-15T09:43:50;14.65;;;7.25;;
28828;SDS011;15966;51.540;11.870;2024-01-15T09:46:17;9.95;;;6.78;;
28828;SDS011;15966;51.540;11.870;2024-01-15T09:48:43;14.35;;;8.30;;
28828;SDS011;15966;51.540;11.870;2024-01-15T09:51:09;11.75;;;7.80;;
28828;SDS011;15966;51.540;11.870;2024-01-15T09:53:35;9.38;;;7.53;;
28828;SDS011;15966;51.540;11.870;2024-01-15T09:56:02;11.00;;;6.95;;
28828;SDS011;15966;51.540;11.870;2024-01-15T09:58:30;15.68;;;8.18;;
28828;SDS011;15966;51.540;11.870;2024-01-15T10:00:56;11.68;;;8.20;;
28828;SDS011;15966;51.540;11.870;2024-01-15T10:03:22;10.52;;;6.65;;
28828;SDS011;15966;51.540;11.870;2024-01-15T10:05:48;10.25;;;7.50;;
28828;SDS011;15966;51.540;11.870;2024-01-15T10:08:16;11.17;;;7.23;;
28828;SDS011;15966;51.540;11.870;2024-01-15T10:10:42;8.93;;;6.88;;
28828;SDS011;15966;51.540;11.870;2024-01-15T10:13:08;16.13;;;8.23;;
28828;SDS011;15966;51.540;11.870;2024-01-15T10:15:34;13.18;;;8.48;;
28828;SDS011;15966;51.540;11.870;2024-01-15T10:18:02;8.23;;;6.25;;
28828;SDS011;15966;51.540;11.870;2024-01-15T10:20:28;13.82;;;7.88;;
28828;SDS011;15966;51.540;11.870;2024-01-15T10:22:57;12.27;;;7.95;;
28828;SDS011;15966;51.540;11.870;2024-01-15T10:25:23;11.68;;;7.35;;
28828;SDS011;15966;51.540;11.870;2024-01-15T10:28:01;10.55;;;6.07;;
28828;SDS011;15966;51.540;11.870;2024-01-15T10:30:30;9.18;;;7.53;;
28828;SDS011;15966;51.540;11.870;2024-01-15T10:33:01;11.45;;;6.97;;
28828;SDS011;15966;51.540;11.870;2024-01-15T10:35:32;11.02;;;7.20;;
28828;SDS011;15966;51.540;11.870;2024-01-15T10:37:59;9.10;;;5.78;;
28828;SDS011;15966;51.540;11.870;2024-01-15T10:40:25;10.80;;;6.70;;
28828;SDS011;15966;51.540;11.870;2024-01-15T10:42:52;10.50;;;7.35;;
28828;SDS011;15966;51.540;11.870;2024-01-15T10:45:18;11.95;;;6.90;;
28828;SDS011;15966;51.540;11.870;2024-01-15T10:47:44;10.50;;;6.57;;
28828;SDS011;15966;51.540;11.870;2024-01-15T10:50:11;16.63;;;9.32;;
28828;SDS011;15966;51.540;11.870;2024-01-15T10:52:37;8.75;;;6.43;;
28828;SDS011;15966;51.540;11.870;2024-01-15T10:57:31;7.32;;;6.32;;
28828;SDS011;15966;51.540;11.870;2024-01-15T10:59:58;8.43;;;6.22;;
28828;SDS011;15966;51.540;11.870;2024-01-15T11:02:24;12.55;;;6.47;;
28828;SDS011;15966;51.540;11.870;2024-01-15T11:04:51;13.63;;;6.32;;
28828;SDS011;15966;51.540;11.870;2024-01-15T11:07:17;13.23;;;7.95;;
28828;SDS011;15966;51.540;11.870;2024-01-15T11:09:47;11.50;;;6.93;;
28828;SDS011;15966;51.540;11.870;2024-01-15T11:12:13;10.90;;;6.78;;
28828;SDS011;15966;51.540;11.870;2024-01-15T11:14:41;9.18;;;7.53;;
28828;SDS011;15966;51.540;11.870;2024-01-15T11:17:12;14.27;;;8.32;;
28828;SDS011;15966;51.540;11.870;2024-01-15T11:22:53;9.15;;;6.32;;
28828;SDS011;15966;51.540;11.870;2024-01-15T11:25:13;6.15;;;5.55;;
28828;SDS011;15966;51.540;11.870;2024-01-15T11:30:12;12.13;;;6.13;;
28828;SDS011;15966;51.540;11.870;2024-01-15T11:32:38;7.95;;;5.70;;
28828;SDS011;15966;51.540;11.870;2024-01-15T11:35:07;10.65;;;5.78;;
28828;SDS011;15966;51.540;11.870;2024-01-15T11:42:58;6.53;;;5.28;;
28828;SDS011;15966;51.540;11.870;2024-01-15T11:45:24;5.50;;;4.57;;
28828;SDS011;15966;51.540;11.870;2024-01-15T11:48:11;6.78;;;4.57;;
28828;SDS011;15966;51.540;11.870;2024-01-15T11:50:39;7.07;;;4.25;;
28828;SDS011;15966;51.540;11.870;2024-01-15T11:53:09;7.40;;;5.22;;
28828;SDS011;15966;51.540;11.870;2024-01-15T11:55:48;8.95;;;5.20;;
28828;SDS011;15966;51.540;11.870;2024-01-15T11:58:17;10.65;;;6.05;;
28828;SDS011;15966;51.540;11.870;2024-01-15T12:00:44;7.63;;;5.45;;
28828;SDS011;15966;51.540;11.870;2024-01-15T12:03:12;9.40;;;5.47;;
28828;SDS011;15966;51.540;11.870;2024-01-15T12:05:38;8.52;;;6.30;;
28828;SDS011;15966;51.540;11.870;2024-01-15T12:08:04;6.43;;;5.55;;
28828;SDS011;15966;51.540;11.870;2024-01-15T12:10:36;8.02;;;5.75;;
28828;SDS011;15966;51.540;11.870;2024-01-15T12:13:09;8.00;;;6.28;;
28828;SDS011;15966;51.540;11.870;2024-01-15T12:15:36;8.30;;;5.30;;
28828;SDS011;15966;51.540;11.870;2024-01-15T12:18:06;7.85;;;5.47;;
28828;SDS011;15966;51.540;11.870;2024-01-15T12:20:33;11.77;;;6.57;;
28828;SDS011;15966;51.540;11.870;2024-01-15T12:23:00;15.30;;;6.75;;
28828;SDS011;15966;51.540;11.870;2024-01-15T12:25:28;9.38;;;6.20;;
28828;SDS011;15966;51.540;11.870;2024-01-15T12:27:55;9.82;;;5.82;;
28828;SDS011;15966;51.540;11.870;2024-01-15T12:30:21;7.53;;;5.78;;
28828;SDS011;15966;51.540;11.870;2024-01-15T12:32:47;9.88;;;6.25;;
28828;SDS011;15966;51.540;11.870;2024-01-15T12:35:13;10.10;;;4.90;;
28828;SDS011;15966;51.540;11.870;2024-01-15T12:37:40;5.47;;;4.30;;
28828;SDS011;15966;51.540;11.870;2024-01-15T12:40:08;6.53;;;5.80;;
28828;SDS011;15966;51.540;11.870;2024-01-15T12:42:37;5.30;;;4.45;;
28828;SDS011;15966;51.540;11.870;2024-01-15T12:45:05;7.10;;;4.60;;
28828;SDS011;15966;51.540;11.870;2024-01-15T12:47:31;9.18;;;4.70;;
28828;SDS011;15966;51.540;11.870;2024-01-15T12:49:58;7.97;;;4.38;;
28828;SDS011;15966;51.540;11.870;2024-01-15T12:52:26;5.35;;;4.07;;
28828;SDS011;15966;51.540;11.870;2024-01-15T12:54:53;5.05;;;3.72;;
28828;SDS011;15966;51.540;11.870;2024-01-15T12:57:19;4.18;;;3.13;;
28828;SDS011;15966;51.540;11.870;2024-01-15T12:59:45;7.32;;;3.15;;
28828;SDS011;15966;51.540;11.870;2024-01-15T13:02:12;3.85;;;3.33;;
28828;SDS011;15966;51.540;11.870;2024-01-15T13:04:38;4.85;;;3.35;;
28828;SDS011;15966;51.540;11.870;2024-01-15T13:07:05;6.32;;;3.25;;
28828;SDS011;15966;51.540;11.870;2024-01-15T13:09:31;4.05;;;2.90;;
28828;SDS011;15966;51.540;11.870;2024-01-15T13:11:58;4.40;;;4.00;;
28828;SDS011;15966;51.540;11.870;2024-01-15T13:14:24;4.53;;;3.53;;
28828;SDS011;15966;51.540;11.870;2024-01-15T13:16:50;4.15;;;3.75;;
28828;SDS011;15966;51.540;11.870;2024-01-15T13:19:18;5.05;;;3.30;;
28828;SDS011;15966;51.540;11.870;2024-01-15T13:21:46;6.35;;;3.65;;
28828;SDS011;15966;51.540;11.870;2024-01-15T13:24:12;6.07;;;4.47;;
28828;SDS011;15966;51.540;11.870;2024-01-15T13:26:39;5.43;;;3.90;;
28828;SDS011;15966;51.540;11.870;2024-01-15T13:29:05;5.80;;;4.30;;
28828;SDS011;15966;51.540;11.870;2024-01-15T13:31:32;8.73;;;3.70;;
28828;SDS011;15966;51.540;11.870;2024-01-15T13:33:58;13.20;;;4.68;;
28828;SDS011;15966;51.540;11.870;2024-01-15T13:36:25;8.35;;;4.57;;
28828;SDS011;15966;51.540;11.870;2024-01-15T13:38:52;6.65;;;3.85;;
28828;SDS011;15966;51.540;11.870;2024-01-15T13:41:18;4.82;;;3.80;;
28828;SDS011;15966;51.540;11.870;2024-01-15T13:43:52;4.32;;;3.85;;
28828;SDS011;15966;51.540;11.870;2024-01-15T13:46:23;5.13;;;3.67;;
28828;SDS011;15966;51.540;11.870;2024-01-15T13:48:54;5.75;;;4.35;;
28828;SDS011;15966;51.540;11.870;2024-01-15T13:51:23;4.00;;;3.50;;
28828;SDS011;15966;51.540;11.870;2024-01-15T13:53:50;6.35;;;4.32;;
28828;SDS011;15966;51.540;11.870;2024-01-15T13:56:17;3.85;;;3.30;;
28828;SDS011;15966;51.540;11.870;2024-01-15T13:58:43;6.10;;;4.40;;
28828;SDS011;15966;51.540;11.870;2024-01-15T14:01:10;6.50;;;3.65;;
28828;SDS011;15966;51.540;11.870;2024-01-15T14:03:36;4.28;;;3.33;;
28828;SDS011;15966;51.540;11.870;2024-01-15T14:06:02;6.75;;;3.83;;
28828;SDS011;15966;51.540;11.870;2024-01-15T14:08:29;5.78;;;3.80;;
28828;SDS011;15966;51.540;11.870;2024-01-15T14:10:55;3.40;;;2.65;;
28828;SDS011;15966;51.540;11.870;2024-01-15T14:13:22;3.87;;;3.47;;
28828;SDS011;15966;51.540;11.870;2024-01-15T14:15:48;4.35;;;2.97;;
28828;SDS011;15966;51.540;11.870;2024-01-15T14:18:15;6.00;;;3.25;;
28828;SDS011;15966;51.540;11.870;2024-01-15T14:20:42;5.23;;;2.93;;
28828;SDS011;15966;51.540;11.870;2024-01-15T14:23:08;4.72;;;3.25;;
28828;SDS011;15966;51.540;11.870;2024-01-15T14:25:34;5.40;;;2.97;;
28828;SDS011;15966;51.540;11.870;2024-01-15T14:28:00;3.70;;;2.58;;